Seaexpressii — HO4619 — position and weather

sailwx.info

Track history (hours):
 
Tides and Currents Weather Stations Pressure Air Temp Water Temp Dewpoint Dewpoint Depression Visibility Wind Speed Wind Dir Waves Ship Positions

Seaexpressii

Last reported at 2016-Jul-23 00:34 UTC. Time now 2016-Jul-24 22:26 UTC.
Position N 25°57' W 079°37'.

Length 37 m; draft 2.2 m.

Type: Cargo ship. MMSI: 356449000.

Date/timePositionNaut miles runAvg speedWind from/ knotsBaromVisibWave heightAir tempDewpointWater temp
2016-Jul-23 00:34N 25°57' W 079°37'8 8.0
2016-Jul-22 23:34N 25°59' W 079°46'8 7.5
2016-Jul-22 22:33N 26°02' W 079°54'8 7.6
2016-Jul-22 21:33N 26°04' W 080°02'5 5.4
2016-Jul-22 20:33N 26°04' W 080°08'0 0.1
2016-Jul-22 19:20N 26°04' W 080°08'0 0.0
2016-Jul-22 18:16N 26°04' W 080°08'0 0.0
2016-Jul-22 17:33N 26°04' W 080°08'0 0.0
2016-Jul-22 16:33N 26°04' W 080°08'0 0.0
2016-Jul-22 15:33N 26°04' W 080°08'0 0.0
2016-Jul-22 14:34N 26°04' W 080°08'0 0.0
2016-Jul-22 13:33N 26°04' W 080°08'0 0.0
2016-Jul-22 12:33N 26°04' W 080°08'1 0.6
2016-Jul-22 11:34N 26°04' W 080°07'6 6.1
2016-Jul-22 10:34N 26°04' W 080°00'8 8.0
2016-Jul-22 09:34N 26°01' W 079°52'8 7.8
2016-Jul-22 08:33N 25°60' W 079°43'8 8.5
2016-Jul-22 07:33N 25°57' W 079°34'  
2016-Jul-20 00:06N 25°57' W 079°35'4 7.9
2016-Jul-19 23:33N 25°58' W 079°39'7 7.3
2016-Jul-19 22:33N 26°01' W 079°47'7 7.0
2016-Jul-19 21:33N 26°03' W 079°54'8 8.3
2016-Jul-19 20:33N 26°05' W 080°03'4 4.1
2016-Jul-19 19:33N 26°04' W 080°08'0 0.0
2016-Jul-19 18:33N 26°04' W 080°08'0 0.0
2016-Jul-19 17:33N 26°04' W 080°08'0 0.0
2016-Jul-19 16:34N 26°04' W 080°08'0 0.0
2016-Jul-19 15:33N 26°04' W 080°08'0 0.0
2016-Jul-19 14:33N 26°04' W 080°08'5 4.7
2016-Jul-19 13:34N 26°04' W 080°03'1010.3
2016-Jul-19 12:34N 25°59' W 079°52'1010.1
2016-Jul-19 11:33N 25°56' W 079°42'13 0.3
2016-Jul-17 15:26N 26°02' W 079°29'8 8.4
2016-Jul-17 14:32N 26°02' W 079°37'7 7.4
2016-Jul-17 13:33N 26°03' W 079°45'8 7.6
2016-Jul-17 12:33N 26°03' W 079°53'8 8.3
2016-Jul-17 11:33N 26°04' W 080°02'5 4.8
2016-Jul-17 10:33N 26°04' W 080°08'0 0.0
2016-Jul-17 09:34N 26°04' W 080°08'0 0.0
2016-Jul-17 08:33N 26°04' W 080°08'0 0.0
2016-Jul-17 07:33N 26°04' W 080°08'0 0.0
2016-Jul-17 06:32N 26°04' W 080°08'0 0.0
2016-Jul-17 04:31N 26°04' W 080°08'0 0.0
2016-Jul-17 03:34N 26°04' W 080°08'0 0.0
2016-Jul-17 02:33N 26°04' W 080°08'0 0.0
2016-Jul-17 01:33N 26°04' W 080°08'0 0.0
2016-Jul-17 00:33N 26°04' W 080°08'0 0.0
2016-Jul-16 23:33N 26°04' W 080°08'0 0.0
2016-Jul-16 22:33N 26°04' W 080°08'0 0.0
2016-Jul-16 21:33N 26°04' W 080°08'0 0.0
2016-Jul-16 20:33N 26°04' W 080°08'2 2.0
2016-Jul-16 19:34N 26°05' W 080°07'1010.1
2016-Jul-16 18:33N 26°01' W 079°57'1111.3
2016-Jul-16 17:34N 25°55' W 079°46'4 0.4
2016-Jul-16 07:16N 25°54' W 079°42'5 7.3
2016-Jul-16 06:33N 25°56' W 079°47'15 7.5
2016-Jul-16 04:33N 26°03' W 080°01'5 5.1
2016-Jul-16 03:34N 26°04' W 080°07'1 0.9
2016-Jul-16 02:27N 26°04' W 080°08'0 0.0
2016-Jul-16 01:33N 26°04' W 080°08'0 0.0
2016-Jul-16 00:33N 26°04' W 080°08'0 0.0
2016-Jul-15 23:15N 26°04' W 080°08'0 0.0
2016-Jul-15 22:21N 26°04' W 080°08'0 0.0
2016-Jul-15 21:33N 26°04' W 080°08'0 0.0
2016-Jul-15 20:21N 26°04' W 080°08'0 0.0
2016-Jul-15 19:33N 26°04' W 080°08'0 0.0
2016-Jul-15 18:33N 26°04' W 080°08'0 0.0
2016-Jul-15 17:24N 26°04' W 080°08'0 0.0
2016-Jul-15 16:27N 26°04' W 080°08'0 0.0
2016-Jul-15 15:27N 26°04' W 080°08'0 0.0
2016-Jul-15 14:27N 26°04' W 080°08'0 0.0
2016-Jul-15 13:27N 26°04' W 080°08'0 0.0
2016-Jul-15 12:30N 26°04' W 080°08'0 0.0
2016-Jul-15 11:30N 26°04' W 080°08'3 2.8
2016-Jul-15 10:33N 26°06' W 080°06'7 7.3
2016-Jul-15 09:33N 26°03' W 079°58'6 6.5
2016-Jul-15 08:33N 26°00' W 079°52'3 3.5
2016-Jul-15 07:33N 25°59' W 079°48'7 7.2
2016-Jul-15 06:33N 25°54' W 079°42'8 0.3
2016-Jul-14 05:30N 25°55' W 079°50'6 6.3
2016-Jul-14 04:32N 25°59' W 079°56'7 7.0
2016-Jul-14 03:33N 26°03' W 080°02'5 5.3
2016-Jul-14 02:34N 26°04' W 080°08'0 0.1
2016-Jul-14 01:33N 26°04' W 080°08'0 0.0
2016-Jul-14 00:33N 26°04' W 080°08'0 0.0
2016-Jul-13 23:33N 26°04' W 080°08'5 5.3
2016-Jul-13 22:33N 26°04' W 080°02'1111.0
2016-Jul-13 21:33N 26°00' W 079°51'1111.0
2016-Jul-13 20:33N 25°56' W 079°39'  
Track history (hours):
 
Tides and Currents Weather Stations Pressure Air Temp Water Temp Dewpoint Dewpoint Depression Visibility Wind Speed Wind Dir Waves Ship Positions

Seaexpressii

Last reported at 2016-Jul-23 00:34 UTC. Time now 2016-Jul-24 22:26 UTC.
Position N 25°57' W 079°37'.

Length 37 m; draft 2.2 m.

Type: Cargo ship. MMSI: 356449000.

Date/timePositionNaut miles runAvg speedWind from/ knotsBaromVisibWave heightAir tempDewpointWater temp
2016-Jul-23 00:34N 25°57' W 079°37'8 8.0
2016-Jul-22 23:34N 25°59' W 079°46'8 7.5
2016-Jul-22 22:33N 26°02' W 079°54'8 7.6
2016-Jul-22 21:33N 26°04' W 080°02'5 5.4
2016-Jul-22 20:33N 26°04' W 080°08'0 0.1
2016-Jul-22 19:20N 26°04' W 080°08'0 0.0
2016-Jul-22 18:16N 26°04' W 080°08'0 0.0
2016-Jul-22 17:33N 26°04' W 080°08'0 0.0
2016-Jul-22 16:33N 26°04' W 080°08'0 0.0
2016-Jul-22 15:33N 26°04' W 080°08'0 0.0
2016-Jul-22 14:34N 26°04' W 080°08'0 0.0
2016-Jul-22 13:33N 26°04' W 080°08'0 0.0
2016-Jul-22 12:33N 26°04' W 080°08'1 0.6
2016-Jul-22 11:34N 26°04' W 080°07'6 6.1
2016-Jul-22 10:34N 26°04' W 080°00'8 8.0
2016-Jul-22 09:34N 26°01' W 079°52'8 7.8
2016-Jul-22 08:33N 25°60' W 079°43'8 8.5
2016-Jul-22 07:33N 25°57' W 079°34'  
2016-Jul-20 00:06N 25°57' W 079°35'4 7.9
2016-Jul-19 23:33N 25°58' W 079°39'7 7.3
2016-Jul-19 22:33N 26°01' W 079°47'7 7.0
2016-Jul-19 21:33N 26°03' W 079°54'8 8.3
2016-Jul-19 20:33N 26°05' W 080°03'4 4.1
2016-Jul-19 19:33N 26°04' W 080°08'0 0.0
2016-Jul-19 18:33N 26°04' W 080°08'0 0.0
2016-Jul-19 17:33N 26°04' W 080°08'0 0.0
2016-Jul-19 16:34N 26°04' W 080°08'0 0.0
2016-Jul-19 15:33N 26°04' W 080°08'0 0.0
2016-Jul-19 14:33N 26°04' W 080°08'5 4.7
2016-Jul-19 13:34N 26°04' W 080°03'1010.3
2016-Jul-19 12:34N 25°59' W 079°52'1010.1
2016-Jul-19 11:33N 25°56' W 079°42'13 0.3
2016-Jul-17 15:26N 26°02' W 079°29'8 8.4
2016-Jul-17 14:32N 26°02' W 079°37'7 7.4
2016-Jul-17 13:33N 26°03' W 079°45'8 7.6
2016-Jul-17 12:33N 26°03' W 079°53'8 8.3
2016-Jul-17 11:33N 26°04' W 080°02'5 4.8
2016-Jul-17 10:33N 26°04' W 080°08'0 0.0
2016-Jul-17 09:34N 26°04' W 080°08'0 0.0
2016-Jul-17 08:33N 26°04' W 080°08'0 0.0
2016-Jul-17 07:33N 26°04' W 080°08'0 0.0
2016-Jul-17 06:32N 26°04' W 080°08'0 0.0
2016-Jul-17 04:31N 26°04' W 080°08'0 0.0
2016-Jul-17 03:34N 26°04' W 080°08'0 0.0
2016-Jul-17 02:33N 26°04' W 080°08'0 0.0
2016-Jul-17 01:33N 26°04' W 080°08'0 0.0
2016-Jul-17 00:33N 26°04' W 080°08'0 0.0
2016-Jul-16 23:33N 26°04' W 080°08'0 0.0
2016-Jul-16 22:33N 26°04' W 080°08'0 0.0
2016-Jul-16 21:33N 26°04' W 080°08'0 0.0
2016-Jul-16 20:33N 26°04' W 080°08'2 2.0
2016-Jul-16 19:34N 26°05' W 080°07'1010.1
2016-Jul-16 18:33N 26°01' W 079°57'1111.3
2016-Jul-16 17:34N 25°55' W 079°46'4 0.4
2016-Jul-16 07:16N 25°54' W 079°42'5 7.3
2016-Jul-16 06:33N 25°56' W 079°47'15 7.5
2016-Jul-16 04:33N 26°03' W 080°01'5 5.1
2016-Jul-16 03:34N 26°04' W 080°07'1 0.9
2016-Jul-16 02:27N 26°04' W 080°08'0 0.0
2016-Jul-16 01:33N 26°04' W 080°08'0 0.0
2016-Jul-16 00:33N 26°04' W 080°08'0 0.0
2016-Jul-15 23:15N 26°04' W 080°08'0 0.0
2016-Jul-15 22:21N 26°04' W 080°08'0 0.0
2016-Jul-15 21:33N 26°04' W 080°08'0 0.0
2016-Jul-15 20:21N 26°04' W 080°08'0 0.0
2016-Jul-15 19:33N 26°04' W 080°08'0 0.0
2016-Jul-15 18:33N 26°04' W 080°08'0 0.0
2016-Jul-15 17:24N 26°04' W 080°08'0 0.0
2016-Jul-15 16:27N 26°04' W 080°08'0 0.0
2016-Jul-15 15:27N 26°04' W 080°08'0 0.0
2016-Jul-15 14:27N 26°04' W 080°08'0 0.0
2016-Jul-15 13:27N 26°04' W 080°08'0 0.0
2016-Jul-15 12:30N 26°04' W 080°08'0 0.0
2016-Jul-15 11:30N 26°04' W 080°08'3 2.8
2016-Jul-15 10:33N 26°06' W 080°06'7 7.3
2016-Jul-15 09:33N 26°03' W 079°58'6 6.5
2016-Jul-15 08:33N 26°00' W 079°52'3 3.5
2016-Jul-15 07:33N 25°59' W 079°48'7 7.2
2016-Jul-15 06:33N 25°54' W 079°42'8 0.3
2016-Jul-14 05:30N 25°55' W 079°50'6 6.3
2016-Jul-14 04:32N 25°59' W 079°56'7 7.0
2016-Jul-14 03:33N 26°03' W 080°02'5 5.3
2016-Jul-14 02:34N 26°04' W 080°08'0 0.1
2016-Jul-14 01:33N 26°04' W 080°08'0 0.0
2016-Jul-14 00:33N 26°04' W 080°08'0 0.0
2016-Jul-13 23:33N 26°04' W 080°08'5 5.3
2016-Jul-13 22:33N 26°04' W 080°02'1111.0
2016-Jul-13 21:33N 26°00' W 079°51'1111.0
2016-Jul-13 20:33N 25°56' W 079°39'  

Dump ship's entire track history